sensor_id;sensor_type;location;lat;lon;timestamp;P1;P2;P0
74430;PMS7003;62863;52.062;23.764;2023-08-31T00:00:39;18;15.2;10
74430;PMS7003;62863;52.062;23.764;2023-08-31T00:05:48;3.4;3.4;2.4
74430;PMS7003;62863;52.062;23.764;2023-08-31T00:10:54;3;3;2.4
74430;PMS7003;62863;52.062;23.764;2023-08-31T00:15:36;4.4;3.6;2.4
74430;PMS7003;62863;52.062;23.764;2023-08-31T00:21:12;3.8;3.2;2
74430;PMS7003;62863;52.062;23.764;2023-08-31T00:25:44;4.2;3.4;2.6
74430;PMS7003;62863;52.062;23.764;2023-08-31T00:30:52;4.2;4;2.4
74430;PMS7003;62863;52.062;23.764;2023-08-31T00:36:04;3.4;2.8;2.2
74430;PMS7003;62863;52.062;23.764;2023-08-31T00:41:00;4.6;3.4;2.4
74430;PMS7003;62863;52.062;23.764;2023-08-31T00:46:02;3.2;3;2.4
74430;PMS7003;62863;52.062;23.764;2023-08-31T00:50:36;3.5;3.5;2.5
74430;PMS7003;62863;52.062;23.764;2023-08-31T00:55:36;5;4.2;3.2
74430;PMS7003;62863;52.062;23.764;2023-08-31T01:00:53;4.6;4.2;2.8
74430;PMS7003;62863;52.062;23.764;2023-08-31T01:05:44;4.4;3.8;2.8
74430;PMS7003;62863;52.062;23.764;2023-08-31T01:11:12;4.8;4.2;3.2
74430;PMS7003;62863;52.062;23.764;2023-08-31T01:16:03;4.2;4.2;3
74430;PMS7003;62863;52.062;23.764;2023-08-31T01:20:52;5.6;5.2;4.2
74430;PMS7003;62863;52.062;23.764;2023-08-31T01:26:02;4.4;3.8;2.6
74430;PMS7003;62863;52.062;23.764;2023-08-31T01:31:03;5.8;4.2;3.6
74430;PMS7003;62863;52.062;23.764;2023-08-31T01:36:12;5.6;4.4;3.2
74430;PMS7003;62863;52.062;23.764;2023-08-31T01:40:56;4.8;4.2;3.2
74430;PMS7003;62863;52.062;23.764;2023-08-31T01:45:58;6;5;4
74430;PMS7003;62863;52.062;23.764;2023-08-31T01:50:36;6.2;5.6;3.8
74430;PMS7003;62863;52.062;23.764;2023-08-31T01:56:10;4.8;4.8;3.5
74430;PMS7003;62863;52.062;23.764;2023-08-31T02:00:38;4.6;4.2;3.4
74430;PMS7003;62863;52.062;23.764;2023-08-31T02:05:58;5.2;4.6;4
74430;PMS7003;62863;52.062;23.764;2023-08-31T02:10:45;5.2;4.8;3.6
74430;PMS7003;62863;52.062;23.764;2023-08-31T02:15:42;6.8;5.8;4.2
74430;PMS7003;62863;52.062;23.764;2023-08-31T02:21:10;7;4.6;3.4
74430;PMS7003;62863;52.062;23.764;2023-08-31T02:25:42;6.2;6;4.2
74430;PMS7003;62863;52.062;23.764;2023-08-31T02:30:43;6.2;5.2;4
74430;PMS7003;62863;52.062;23.764;2023-08-31T02:35:58;5.2;4.8;4
74430;PMS7003;62863;52.062;23.764;2023-08-31T02:41:00;6.8;6.2;4
74430;PMS7003;62863;52.062;23.764;2023-08-31T02:46:14;8;7.4;5.4
74430;PMS7003;62863;52.062;23.764;2023-08-31T02:50:50;7.2;7.2;6
74430;PMS7003;62863;52.062;23.764;2023-08-31T02:55:50;7.5;6.8;5.5
74430;PMS7003;62863;52.062;23.764;2023-08-31T03:00:52;7.6;6.8;4.8
74430;PMS7003;62863;52.062;23.764;2023-08-31T03:05:42;7.8;6.4;4.8
74430;PMS7003;62863;52.062;23.764;2023-08-31T03:11:14;8.6;7.6;5.4
74430;PMS7003;62863;52.062;23.764;2023-08-31T03:15:42;9;7.2;5.2
74430;PMS7003;62863;52.062;23.764;2023-08-31T03:20:46;7.2;6.8;5.2
74430;PMS7003;62863;52.062;23.764;2023-08-31T03:25:36;7.4;6.4;5.4
74430;PMS7003;62863;52.062;23.764;2023-08-31T03:31:02;6.4;6.4;4.8
74430;PMS7003;62863;52.062;23.764;2023-08-31T03:36:14;7.8;6.8;5
74430;PMS7003;62863;52.062;23.764;2023-08-31T03:41:00;7.8;6.4;4.6
74430;PMS7003;62863;52.062;23.764;2023-08-31T03:46:00;8.6;6.8;5
74430;PMS7003;62863;52.062;23.764;2023-08-31T03:50:36;7.4;7;5.2
74430;PMS7003;62863;52.062;23.764;2023-08-31T03:55:42;8.3;6.8;5.3
74430;PMS7003;62863;52.062;23.764;2023-08-31T04:01:12;8.6;7.2;5.6
74430;PMS7003;62863;52.062;23.764;2023-08-31T04:05:48;9;7.8;5.6
74430;PMS7003;62863;52.062;23.764;2023-08-31T04:10:36;10.2;8.6;6
74430;PMS7003;62863;52.062;23.764;2023-08-31T04:15:42;9.8;8;6
74430;PMS7003;62863;52.062;23.764;2023-08-31T04:21:00;10;9;6.6
74430;PMS7003;62863;52.062;23.764;2023-08-31T04:26:12;11.6;9.6;6.6
74430;PMS7003;62863;52.062;23.764;2023-08-31T04:31:00;10;9;6.4
74430;PMS7003;62863;52.062;23.764;2023-08-31T04:35:50;10.4;8.2;6.2
74430;PMS7003;62863;52.062;23.764;2023-08-31T04:40:42;9.8;8.6;6.4
74430;PMS7003;62863;52.062;23.764;2023-08-31T04:45:48;8.4;7.4;5.4
74430;PMS7003;62863;52.062;23.764;2023-08-31T04:51:26;8.4;7.8;6.2
74430;PMS7003;62863;52.062;23.764;2023-08-31T04:55:48;10.8;9.8;6.5
74430;PMS7003;62863;52.062;23.764;2023-08-31T05:01:14;12;9.8;6.4
74430;PMS7003;62863;52.062;23.764;2023-08-31T05:05:42;11.8;10.8;7.4
74430;PMS7003;62863;52.062;23.764;2023-08-31T05:11:00;10;8.2;6.2
74430;PMS7003;62863;52.062;23.764;2023-08-31T05:16:12;8;7.6;5.2
74430;PMS7003;62863;52.062;23.764;2023-08-31T05:20:58;7.6;6.4;4.8
74430;PMS7003;62863;52.062;23.764;2023-08-31T05:25:44;5.6;4.8;3.8
74430;PMS7003;62863;52.062;23.764;2023-08-31T05:30:47;5.4;4.8;3.4
74430;PMS7003;62863;52.062;23.764;2023-08-31T05:35:35;4.8;4.6;3.6
74430;PMS7003;62863;52.062;23.764;2023-08-31T05:41:12;6;5.2;3.6
74430;PMS7003;62863;52.062;23.764;2023-08-31T05:45:42;6.2;6.2;4.4
74430;PMS7003;62863;52.062;23.764;2023-08-31T05:50:46;7.6;6.2;4
74430;PMS7003;62863;52.062;23.764;2023-08-31T05:55:42;8.3;7.8;5.3
74430;PMS7003;62863;52.062;23.764;2023-08-31T06:01:00;7.4;6.4;4.4
74430;PMS7003;62863;52.062;23.764;2023-08-31T06:06:12;7.2;6.4;4.4
74430;PMS7003;62863;52.062;23.764;2023-08-31T06:10:52;8.4;7.4;4.6
74430;PMS7003;62863;52.062;23.764;2023-08-31T06:16:00;8.8;8;5.8
74430;PMS7003;62863;52.062;23.764;2023-08-31T06:20:52;10.6;9.2;6.4
74430;PMS7003;62863;52.062;23.764;2023-08-31T06:25:54;10.2;8.4;6.4
74430;PMS7003;62863;52.062;23.764;2023-08-31T06:31:12;10.2;8.6;6.6
74430;PMS7003;62863;52.062;23.764;2023-08-31T06:35:42;12;9.8;6.8
74430;PMS7003;62863;52.062;23.764;2023-08-31T06:40:46;10.4;9.4;6.8
74430;PMS7003;62863;52.062;23.764;2023-08-31T06:45:54;11.4;9.6;6.8
74430;PMS7003;62863;52.062;23.764;2023-08-31T06:51:00;12.4;10.2;7.2
74430;PMS7003;62863;52.062;23.764;2023-08-31T06:56:12;11.8;10.2;7
74430;PMS7003;62863;52.062;23.764;2023-08-31T07:00:52;10.5;10;7.5
74430;PMS7003;62863;52.062;23.764;2023-08-31T07:06:00;12.2;11.2;8
74430;PMS7003;62863;52.062;23.764;2023-08-31T07:11:00;13.4;11.4;8.2
74430;PMS7003;62863;52.062;23.764;2023-08-31T07:15:42;13;11.4;8
74430;PMS7003;62863;52.062;23.764;2023-08-31T07:21:12;10;8.6;6.6
74430;PMS7003;62863;52.062;23.764;2023-08-31T07:25:42;13.4;11.2;8.4
74430;PMS7003;62863;52.062;23.764;2023-08-31T07:30:42;9.4;9;6.2
74430;PMS7003;62863;52.062;23.764;2023-08-31T07:35:36;11.4;9.4;7.4
74430;PMS7003;62863;52.062;23.764;2023-08-31T07:41:00;10.6;9.4;6.6
74430;PMS7003;62863;52.062;23.764;2023-08-31T07:46:12;9.6;8.2;6
74430;PMS7003;62863;52.062;23.764;2023-08-31T07:50:52;9;7.4;5
74430;PMS7003;62863;52.062;23.764;2023-08-31T07:56:00;9;7.6;5.2
74430;PMS7003;62863;52.062;23.764;2023-08-31T08:00:52;10;8.5;6.5
74430;PMS7003;62863;52.062;23.764;2023-08-31T08:05:36;9;8;5.4
74430;PMS7003;62863;52.062;23.764;2023-08-31T08:11:12;8.4;7.8;5.8
74430;PMS7003;62863;52.062;23.764;2023-08-31T08:15:46;10;7.8;5.8
74430;PMS7003;62863;52.062;23.764;2023-08-31T08:20:36;11.6;9;6.8
74430;PMS7003;62863;52.062;23.764;2023-08-31T08:25:46;11.8;10.5;8.5
74430;PMS7003;62863;52.062;23.764;2023-08-31T08:30:38;11.8;10.4;7.8
74430;PMS7003;62863;52.062;23.764;2023-08-31T08:36:12;8.8;8.2;5.8
74430;PMS7003;62863;52.062;23.764;2023-08-31T08:40:36;9.8;8.6;6
74430;PMS7003;62863;52.062;23.764;2023-08-31T08:45:50;10.4;8.2;6
74430;PMS7003;62863;52.062;23.764;2023-08-31T08:50:52;9;7.8;5.8
74430;PMS7003;62863;52.062;23.764;2023-08-31T08:55:42;11.2;9.2;6.4
74430;PMS7003;62863;52.062;23.764;2023-08-31T09:01:10;12;10.2;7
74430;PMS7003;62863;52.062;23.764;2023-08-31T09:05:36;13.3;10;8
74430;PMS7003;62863;52.062;23.764;2023-08-31T09:10:36;12.8;10.4;7.4
74430;PMS7003;62863;52.062;23.764;2023-08-31T09:15:37;9.8;9.2;6.4
74430;PMS7003;62863;52.062;23.764;2023-08-31T09:21:00;9.8;8.2;6
74430;PMS7003;62863;52.062;23.764;2023-08-31T09:26:12;10.4;8.4;6
74430;PMS7003;62863;52.062;23.764;2023-08-31T09:30:52;7.4;7;5.2
74430;PMS7003;62863;52.062;23.764;2023-08-31T09:35:48;8.6;7;5
74430;PMS7003;62863;52.062;23.764;2023-08-31T09:40:53;6.4;6.2;4.8
74430;PMS7003;62863;52.062;23.764;2023-08-31T09:45:48;6.4;5.8;3.8
74430;PMS7003;62863;52.062;23.764;2023-08-31T09:51:07;7;5.6;4.4
74430;PMS7003;62863;52.062;23.764;2023-08-31T09:55:54;6.4;5.2;3.6
74430;PMS7003;62863;52.062;23.764;2023-08-31T10:00:36;4;3.6;2.8
74430;PMS7003;62863;52.062;23.764;2023-08-31T10:05:48;6;5.3;4
74430;PMS7003;62863;52.062;23.764;2023-08-31T10:11:00;5.4;4.4;3.2
74430;PMS7003;62863;52.062;23.764;2023-08-31T10:16:14;3;2.6;1.8
74430;PMS7003;62863;52.062;23.764;2023-08-31T10:21:13;4;2.6;2.2
74430;PMS7003;62863;52.062;23.764;2023-08-31T10:26:01;1.2;0.8;0.6
74430;PMS7003;62863;52.062;23.764;2023-08-31T10:31:00;1.2;0.6;0.4
74430;PMS7003;62863;52.062;23.764;2023-08-31T10:35:48;0.6;0.6;0.4
74430;PMS7003;62863;52.062;23.764;2023-08-31T10:41:00;1;1;0.4
74430;PMS7003;62863;52.062;23.764;2023-08-31T10:45:43;0.8;0.8;0.4
74430;PMS7003;62863;52.062;23.764;2023-08-31T10:50:40;0.8;0.4;0.2
74430;PMS7003;62863;52.062;23.764;2023-08-31T10:56:12;0.8;0.2;0.2
74430;PMS7003;62863;52.062;23.764;2023-08-31T11:00:46;2;1.2;1
74430;PMS7003;62863;52.062;23.764;2023-08-31T11:06:14;1.3;1;0.8
74430;PMS7003;62863;52.062;23.764;2023-08-31T11:10:45;0.6;0.4;0.2
74430;PMS7003;62863;52.062;23.764;2023-08-31T11:15:52;2.2;1.4;0.8
74430;PMS7003;62863;52.062;23.764;2023-08-31T11:21:12;1.6;1.4;0.4
74430;PMS7003;62863;52.062;23.764;2023-08-31T11:25:36;1.2;1;0.6
74430;PMS7003;62863;52.062;23.764;2023-08-31T11:31:00;0.8;0.2;0
74430;PMS7003;62863;52.062;23.764;2023-08-31T11:36:04;0.8;0.6;0
74430;PMS7003;62863;52.062;23.764;2023-08-31T11:40:36;1.8;0.8;0.6
74430;PMS7003;62863;52.062;23.764;2023-08-31T11:46:12;1.2;1;0.8
74430;PMS7003;62863;52.062;23.764;2023-08-31T11:50:36;0.8;0.6;0.4
74430;PMS7003;62863;52.062;23.764;2023-08-31T11:56:12;0;0;0
74430;PMS7003;62863;52.062;23.764;2023-08-31T12:01:17;1;1;0.6
74430;PMS7003;62863;52.062;23.764;2023-08-31T12:05:54;0.6;0.6;0.4
74430;PMS7003;62863;52.062;23.764;2023-08-31T12:11:00;0.8;0.6;0.2
74430;PMS7003;62863;52.062;23.764;2023-08-31T12:15:36;0.8;0.8;0.5
74430;PMS7003;62863;52.062;23.764;2023-08-31T12:21:00;0.8;0.8;0.4
74430;PMS7003;62863;52.062;23.764;2023-08-31T12:25:36;1.2;1.2;0.6
74430;PMS7003;62863;52.062;23.764;2023-08-31T12:30:42;1.2;1.2;0.8
74430;PMS7003;62863;52.062;23.764;2023-08-31T12:36:12;1.4;0.8;0.2
74430;PMS7003;62863;52.062;23.764;2023-08-31T12:40:52;1.4;0.8;0.2
74430;PMS7003;62863;52.062;23.764;2023-08-31T12:46:12;1.4;1.4;0.6
74430;PMS7003;62863;52.062;23.764;2023-08-31T12:51:12;0.4;0.4;0.4
74430;PMS7003;62863;52.062;23.764;2023-08-31T12:55:50;2.2;1.4;1
74430;PMS7003;62863;52.062;23.764;2023-08-31T13:01:00;1.4;1;0.4
74430;PMS7003;62863;52.062;23.764;2023-08-31T13:05:42;0.6;0.6;0.4
74430;PMS7003;62863;52.062;23.764;2023-08-31T13:11:00;2.6;1.8;1.6
74430;PMS7003;62863;52.062;23.764;2023-08-31T13:15:36;1;0.8;0.8
74430;PMS7003;62863;52.062;23.764;2023-08-31T13:21:00;2;1.4;1.2
74430;PMS7003;62863;52.062;23.764;2023-08-31T13:26:12;3.6;2.8;1.8
74430;PMS7003;62863;52.062;23.764;2023-08-31T13:30:55;2.6;2.6;1.8
74430;PMS7003;62863;52.062;23.764;2023-08-31T13:36:02;3.2;3;2
74430;PMS7003;62863;52.062;23.764;2023-08-31T13:41:12;3.4;2.8;2
74430;PMS7003;62863;52.062;23.764;2023-08-31T13:51:12;7.3;5.8;4.8
74430;PMS7003;62863;52.062;23.764;2023-08-31T13:55:46;4.3;3.5;2.3
74430;PMS7003;62863;52.062;23.764;2023-08-31T14:00:54;4;3.6;2.4
74430;PMS7003;62863;52.062;23.764;2023-08-31T14:05:36;4.4;3.2;2.6
74430;PMS7003;62863;52.062;23.764;2023-08-31T14:10:42;4;3.6;2.8
74430;PMS7003;62863;52.062;23.764;2023-08-31T14:16:12;5.2;3.8;3
74430;PMS7003;62863;52.062;23.764;2023-08-31T14:20:36;5;4.2;3.2
74430;PMS7003;62863;52.062;23.764;2023-08-31T14:26:02;4.4;2.8;1.8
74430;PMS7003;62863;52.062;23.764;2023-08-31T14:31:12;3.4;3.4;2.6
74430;PMS7003;62863;52.062;23.764;2023-08-31T14:36:00;4;3;2
74430;PMS7003;62863;52.062;23.764;2023-08-31T14:41:12;5.6;4.4;3.4
74430;PMS7003;62863;52.062;23.764;2023-08-31T14:45:36;5.2;4.4;3
74430;PMS7003;62863;52.062;23.764;2023-08-31T14:50:42;3.2;3;2.4
74430;PMS7003;62863;52.062;23.764;2023-08-31T14:55:36;3.3;3;2.5
74430;PMS7003;62863;52.062;23.764;2023-08-31T15:00:42;3.2;2.6;1.8
74430;PMS7003;62863;52.062;23.764;2023-08-31T15:05:54;3.8;3.6;2.6
74430;PMS7003;62863;52.062;23.764;2023-08-31T15:10:37;3;3;2
74430;PMS7003;62863;52.062;23.764;2023-08-31T15:16:12;2;2;1.4
74430;PMS7003;62863;52.062;23.764;2023-08-31T15:20:58;3;2.8;2
74430;PMS7003;62863;52.062;23.764;2023-08-31T15:26:12;2.8;2.4;1.8
74430;PMS7003;62863;52.062;23.764;2023-08-31T15:31:12;3.2;2.8;2
74430;PMS7003;62863;52.062;23.764;2023-08-31T15:35:48;3.4;2;1.8
74430;PMS7003;62863;52.062;23.764;2023-08-31T15:40:48;3.2;2.4;1.6
74430;PMS7003;62863;52.062;23.764;2023-08-31T15:45:36;2.4;2.2;1.4
74430;PMS7003;62863;52.062;23.764;2023-08-31T15:50:36;4.2;3.6;2.8
74430;PMS7003;62863;52.062;23.764;2023-08-31T15:55:58;7;5;4
74430;PMS7003;62863;52.062;23.764;2023-08-31T16:01:08;3;3;3
74430;PMS7003;62863;52.062;23.764;2023-08-31T16:06:12;6.6;4.8;3.8
74430;PMS7003;62863;52.062;23.764;2023-08-31T16:11:04;4.6;4.2;3.4
74430;PMS7003;62863;52.062;23.764;2023-08-31T16:16:12;5.6;5;4
74430;PMS7003;62863;52.062;23.764;2023-08-31T16:21:12;4.6;4.4;3.8
74430;PMS7003;62863;52.062;23.764;2023-08-31T16:25:36;5;4.6;3.4
74430;PMS7003;62863;52.062;23.764;2023-08-31T16:30:36;6.2;5.2;4
74430;PMS7003;62863;52.062;23.764;2023-08-31T16:35:55;5.8;4.8;4
74430;PMS7003;62863;52.062;23.764;2023-08-31T16:40:48;5.7;4.7;4
74430;PMS7003;62863;52.062;23.764;2023-08-31T16:46:00;5.8;5.6;4.8
74430;PMS7003;62863;52.062;23.764;2023-08-31T16:50:52;6.2;5.2;4.4
74430;PMS7003;62863;52.062;23.764;2023-08-31T16:56:12;5.8;4.6;4.2
74430;PMS7003;62863;52.062;23.764;2023-08-31T17:01:04;10.8;10.3;8
74430;PMS7003;62863;52.062;23.764;2023-08-31T17:06:14;11.4;11;8.2
74430;PMS7003;62863;52.062;23.764;2023-08-31T17:11:12;7.8;7.2;6
74430;PMS7003;62863;52.062;23.764;2023-08-31T17:16:00;9.8;9.4;7.2
74430;PMS7003;62863;52.062;23.764;2023-08-31T17:20:54;8.8;8;6.4
74430;PMS7003;62863;52.062;23.764;2023-08-31T17:25:36;8.6;8;6
74430;PMS7003;62863;52.062;23.764;2023-08-31T17:30:43;8.8;8;6.5
74430;PMS7003;62863;52.062;23.764;2023-08-31T17:36:04;12.8;11.8;9.3
74430;PMS7003;62863;52.062;23.764;2023-08-31T17:40:52;11;10.3;7.5
74430;PMS7003;62863;52.062;23.764;2023-08-31T17:46:12;12.3;12;9.7
74430;PMS7003;62863;52.062;23.764;2023-08-31T17:51:04;15.8;13.2;10.6
74430;PMS7003;62863;52.062;23.764;2023-08-31T17:56:00;12;10.6;8.8
74430;PMS7003;62863;52.062;23.764;2023-08-31T18:01:12;14.2;11.8;9.4
74430;PMS7003;62863;52.062;23.764;2023-08-31T18:05:47;13.8;11;9
74430;PMS7003;62863;52.062;23.764;2023-08-31T18:10:42;11.5;11.3;8.3
74430;PMS7003;62863;52.062;23.764;2023-08-31T18:15:36;11;10.6;8.2
74430;PMS7003;62863;52.062;23.764;2023-08-31T18:21:12;13.6;12.4;9.6
74430;PMS7003;62863;52.062;23.764;2023-08-31T18:26:04;14;13.2;10.2
74430;PMS7003;62863;52.062;23.764;2023-08-31T18:30:53;15.5;13.3;10.3
74430;PMS7003;62863;52.062;23.764;2023-08-31T18:36:12;13.4;11.6;9
74430;PMS7003;62863;52.062;23.764;2023-08-31T18:41:04;12.8;11;9
74430;PMS7003;62863;52.062;23.764;2023-08-31T18:46:12;12.6;11.6;9.2
74430;PMS7003;62863;52.062;23.764;2023-08-31T18:51:12;13.2;12;9.4
74430;PMS7003;62863;52.062;23.764;2023-08-31T18:55:48;12.4;10.8;8.2
74430;PMS7003;62863;52.062;23.764;2023-08-31T19:00:36;13.4;10.8;8
74430;PMS7003;62863;52.062;23.764;2023-08-31T19:05:36;12.6;11.2;8.2
74430;PMS7003;62863;52.062;23.764;2023-08-31T19:10:52;12.3;9.8;8
74430;PMS7003;62863;52.062;23.764;2023-08-31T19:16:12;10.6;9.2;8
74430;PMS7003;62863;52.062;23.764;2023-08-31T19:20:46;12.4;10.6;8
74430;PMS7003;62863;52.062;23.764;2023-08-31T19:25:42;10.6;9.8;7.6
74430;PMS7003;62863;52.062;23.764;2023-08-31T19:31:04;10.4;9.8;7.2
74430;PMS7003;62863;52.062;23.764;2023-08-31T19:36:02;10.8;8.8;7.2
74430;PMS7003;62863;52.062;23.764;2023-08-31T19:41:12;11.6;9.4;7
74430;PMS7003;62863;52.062;23.764;2023-08-31T19:46:00;12.4;8.8;7.2
74430;PMS7003;62863;52.062;23.764;2023-08-31T19:50:42;11.2;10.2;8.4
74430;PMS7003;62863;52.062;23.764;2023-08-31T19:55:36;10.6;10.4;8.2
74430;PMS7003;62863;52.062;23.764;2023-08-31T20:00:36;10.6;10;8
74430;PMS7003;62863;52.062;23.764;2023-08-31T20:06:12;10.8;9.4;7.8
74430;PMS7003;62863;52.062;23.764;2023-08-31T20:10:52;11.5;10.8;9.3
74430;PMS7003;62863;52.062;23.764;2023-08-31T20:15:57;13.2;12.8;10.4
74430;PMS7003;62863;52.062;23.764;2023-08-31T20:21:04;14.3;12.8;10
74430;PMS7003;62863;52.062;23.764;2023-08-31T20:26:00;15.6;14.6;12.2
74430;PMS7003;62863;52.062;23.764;2023-08-31T20:31:12;13.8;13;9.8
74430;PMS7003;62863;52.062;23.764;2023-08-31T20:36:04;14;12.6;10.8
74430;PMS7003;62863;52.062;23.764;2023-08-31T20:40:42;14;13;9.6
74430;PMS7003;62863;52.062;23.764;2023-08-31T20:45:42;16.2;14.8;12
74430;PMS7003;62863;52.062;23.764;2023-08-31T20:50:46;19.6;16.6;12.4
74430;PMS7003;62863;52.062;23.764;2023-08-31T20:56:12;13;12.4;9.6
74430;PMS7003;62863;52.062;23.764;2023-08-31T21:00:52;13;11.6;8.8
74430;PMS7003;62863;52.062;23.764;2023-08-31T21:05:50;12.2;10.8;8.6
74430;PMS7003;62863;52.062;23.764;2023-08-31T21:10:58;11.8;11.4;8.6
74430;PMS7003;62863;52.062;23.764;2023-08-31T21:16:00;13;11.8;9.5
74430;PMS7003;62863;52.062;23.764;2023-08-31T21:21:12;13;12.2;9
74430;PMS7003;62863;52.062;23.764;2023-08-31T21:25:52;12.4;10.8;9
74430;PMS7003;62863;52.062;23.764;2023-08-31T21:30:37;11.8;11;8.6
74430;PMS7003;62863;52.062;23.764;2023-08-31T21:35:52;12.4;11.6;9.2
74430;PMS7003;62863;52.062;23.764;2023-08-31T21:40:34;12;11.2;9.2
74430;PMS7003;62863;52.062;23.764;2023-08-31T21:46:06;14.2;12.2;9.6
74430;PMS7003;62863;52.062;23.764;2023-08-31T21:50:36;13.6;12.8;9.8
74430;PMS7003;62863;52.062;23.764;2023-08-31T21:55:46;13.6;12;9.6
74430;PMS7003;62863;52.062;23.764;2023-08-31T22:01:04;14.2;12;9.4
74430;PMS7003;62863;52.062;23.764;2023-08-31T22:06:04;12.2;11;8.6
74430;PMS7003;62863;52.062;23.764;2023-08-31T22:11:12;12.4;12;9.4
74430;PMS7003;62863;52.062;23.764;2023-08-31T22:16:00;13.3;12.5;10
74430;PMS7003;62863;52.062;23.764;2023-08-31T22:20:42;13.8;12.2;9.6
74430;PMS7003;62863;52.062;23.764;2023-08-31T22:25:46;13;11.4;9.6
74430;PMS7003;62863;52.062;23.764;2023-08-31T22:30:52;11.8;11.6;9.6
74430;PMS7003;62863;52.062;23.764;2023-08-31T22:36:12;12.8;10.8;8.8
74430;PMS7003;62863;52.062;23.764;2023-08-31T22:40:52;12.4;11.4;8.8
74430;PMS7003;62863;52.062;23.764;2023-08-31T22:46:00;12.2;11.2;9
74430;PMS7003;62863;52.062;23.764;2023-08-31T22:51:04;11.2;10;7.8
74430;PMS7003;62863;52.062;23.764;2023-08-31T22:55:58;12.2;10.8;8.2
74430;PMS7003;62863;52.062;23.764;2023-08-31T23:01:12;10;9.4;7.4
74430;PMS7003;62863;52.062;23.764;2023-08-31T23:05:36;11.2;9.8;8
74430;PMS7003;62863;52.062;23.764;2023-08-31T23:10:34;9.6;9;7.2
74430;PMS7003;62863;52.062;23.764;2023-08-31T23:15:53;11;9.8;7.4
74430;PMS7003;62863;52.062;23.764;2023-08-31T23:21:01;11;10;7.8
74430;PMS7003;62863;52.062;23.764;2023-08-31T23:26:14;8.8;8.6;6.8
74430;PMS7003;62863;52.062;23.764;2023-08-31T23:31:04;10.2;10;7.4
74430;PMS7003;62863;52.062;23.764;2023-08-31T23:36:00;12.2;10;7.2
74430;PMS7003;62863;52.062;23.764;2023-08-31T23:41:04;10.4;10;7.8
74430;PMS7003;62863;52.062;23.764;2023-08-31T23:45:58;10.4;9;7
74430;PMS7003;62863;52.062;23.764;2023-08-31T23:51:12;12;10.2;7.8
74430;PMS7003;62863;52.062;23.764;2023-08-31T23:55:42;11.4;9.6;7.8
